sensor_id;sensor_type;location;lat;lon;timestamp;P1;durP1;ratioP1;P2;durP2;ratioP2
1593;SDS011;790;47.000;16.084;2022-08-04T00:01:27;3.28;;;3.08;;
1593;SDS011;790;47.000;16.084;2022-08-04T00:03:59;3.38;;;3.17;;
1593;SDS011;790;47.000;16.084;2022-08-04T00:06:33;3.20;;;3.00;;
1593;SDS011;790;47.000;16.084;2022-08-04T00:09:12;4.93;;;3.42;;
1593;SDS011;790;47.000;16.084;2022-08-04T00:11:43;3.55;;;3.35;;
1593;SDS011;790;47.000;16.084;2022-08-04T00:14:14;3.10;;;3.00;;
1593;SDS011;790;47.000;16.084;2022-08-04T00:16:43;5.72;;;3.53;;
1593;SDS011;790;47.000;16.084;2022-08-04T00:19:16;3.88;;;3.20;;
1593;SDS011;790;47.000;16.084;2022-08-04T00:21:46;5.10;;;3.28;;
1593;SDS011;790;47.000;16.084;2022-08-04T00:24:19;4.57;;;3.67;;
1593;SDS011;790;47.000;16.084;2022-08-04T00:26:48;2.88;;;2.78;;
1593;SDS011;790;47.000;16.084;2022-08-04T00:29:19;3.42;;;3.22;;
1593;SDS011;790;47.000;16.084;2022-08-04T00:31:48;3.13;;;3.03;;
1593;SDS011;790;47.000;16.084;2022-08-04T00:34:16;3.55;;;3.45;;
1593;SDS011;790;47.000;16.084;2022-08-04T00:36:44;3.78;;;3.58;;
1593;SDS011;790;47.000;16.084;2022-08-04T00:39:12;3.92;;;3.63;;
1593;SDS011;790;47.000;16.084;2022-08-04T00:41:45;3.55;;;3.25;;
1593;SDS011;790;47.000;16.084;2022-08-04T00:44:32;3.42;;;3.33;;
1593;SDS011;790;47.000;16.084;2022-08-04T00:47:21;3.97;;;3.67;;
1593;SDS011;790;47.000;16.084;2022-08-04T00:50:07;3.63;;;3.42;;
1593;SDS011;790;47.000;16.084;2022-08-04T00:52:38;4.90;;;4.10;;
1593;SDS011;790;47.000;16.084;2022-08-04T00:55:25;3.40;;;3.20;;
1593;SDS011;790;47.000;16.084;2022-08-04T00:58:04;3.80;;;3.60;;
1593;SDS011;790;47.000;16.084;2022-08-04T01:00:46;3.58;;;3.40;;
1593;SDS011;790;47.000;16.084;2022-08-04T01:03:21;6.75;;;3.55;;
1593;SDS011;790;47.000;16.084;2022-08-04T01:06:01;3.92;;;3.60;;
1593;SDS011;790;47.000;16.084;2022-08-04T01:08:40;3.80;;;3.60;;
1593;SDS011;790;47.000;16.084;2022-08-04T01:11:25;4.00;;;3.70;;
1593;SDS011;790;47.000;16.084;2022-08-04T01:14:10;3.90;;;3.50;;
1593;SDS011;790;47.000;16.084;2022-08-04T01:17:04;3.65;;;3.35;;
1593;SDS011;790;47.000;16.084;2022-08-04T01:19:52;4.53;;;3.22;;
1593;SDS011;790;47.000;16.084;2022-08-04T01:22:39;3.80;;;3.60;;
1593;SDS011;790;47.000;16.084;2022-08-04T01:31:29;3.63;;;3.33;;
1593;SDS011;790;47.000;16.084;2022-08-04T01:34:01;3.70;;;3.50;;
1593;SDS011;790;47.000;16.084;2022-08-04T01:36:32;4.00;;;3.70;;
1593;SDS011;790;47.000;16.084;2022-08-04T01:39:00;3.95;;;3.60;;
1593;SDS011;790;47.000;16.084;2022-08-04T01:41:50;3.70;;;3.55;;
1593;SDS011;790;47.000;16.084;2022-08-04T01:44:19;3.85;;;3.65;;
1593;SDS011;790;47.000;16.084;2022-08-04T01:46:49;4.22;;;3.90;;
1593;SDS011;790;47.000;16.084;2022-08-04T01:49:18;4.10;;;3.80;;
1593;SDS011;790;47.000;16.084;2022-08-04T01:51:48;3.72;;;3.53;;
1593;SDS011;790;47.000;16.084;2022-08-04T01:54:17;4.28;;;4.07;;
1593;SDS011;790;47.000;16.084;2022-08-04T01:56:46;3.92;;;3.63;;
1593;SDS011;790;47.000;16.084;2022-08-04T01:59:19;4.00;;;3.70;;
1593;SDS011;790;47.000;16.084;2022-08-04T02:01:47;4.22;;;3.92;;
1593;SDS011;790;47.000;16.084;2022-08-04T02:04:15;4.27;;;3.97;;
1593;SDS011;790;47.000;16.084;2022-08-04T02:06:52;4.45;;;3.90;;
1593;SDS011;790;47.000;16.084;2022-08-04T02:09:29;4.72;;;4.32;;
1593;SDS011;790;47.000;16.084;2022-08-04T02:12:05;4.47;;;3.77;;
1593;SDS011;790;47.000;16.084;2022-08-04T02:14:42;3.73;;;3.43;;
1593;SDS011;790;47.000;16.084;2022-08-04T02:17:18;3.90;;;3.60;;
1593;SDS011;790;47.000;16.084;2022-08-04T02:20:03;3.80;;;3.60;;
1593;SDS011;790;47.000;16.084;2022-08-04T02:22:33;4.05;;;3.85;;
1593;SDS011;790;47.000;16.084;2022-08-04T02:25:06;3.97;;;3.78;;
1593;SDS011;790;47.000;16.084;2022-08-04T02:27:39;4.07;;;3.78;;
1593;SDS011;790;47.000;16.084;2022-08-04T02:30:22;4.22;;;3.83;;
1593;SDS011;790;47.000;16.084;2022-08-04T02:32:56;3.90;;;3.70;;
1593;SDS011;790;47.000;16.084;2022-08-04T02:35:27;3.85;;;3.65;;
1593;SDS011;790;47.000;16.084;2022-08-04T02:38:00;4.13;;;3.93;;
1593;SDS011;790;47.000;16.084;2022-08-04T02:40:38;4.37;;;4.07;;
1593;SDS011;790;47.000;16.084;2022-08-04T02:43:07;4.00;;;3.80;;
1593;SDS011;790;47.000;16.084;2022-08-04T02:45:37;3.83;;;3.63;;
1593;SDS011;790;47.000;16.084;2022-08-04T02:48:08;4.47;;;4.07;;
1593;SDS011;790;47.000;16.084;2022-08-04T02:50:36;4.40;;;4.00;;
1593;SDS011;790;47.000;16.084;2022-08-04T02:53:06;4.17;;;3.97;;
1593;SDS011;790;47.000;16.084;2022-08-04T02:55:37;4.10;;;3.70;;
1593;SDS011;790;47.000;16.084;2022-08-04T02:58:06;4.20;;;4.00;;
1593;SDS011;790;47.000;16.084;2022-08-04T03:00:34;4.43;;;4.13;;
1593;SDS011;790;47.000;16.084;2022-08-04T03:03:18;3.87;;;3.67;;
1593;SDS011;790;47.000;16.084;2022-08-04T03:06:07;4.20;;;3.80;;
1593;SDS011;790;47.000;16.084;2022-08-04T03:12:01;4.23;;;4.03;;
1593;SDS011;790;47.000;16.084;2022-08-04T03:14:51;4.37;;;4.00;;
1593;SDS011;790;47.000;16.084;2022-08-04T03:17:49;4.00;;;3.80;;
1593;SDS011;790;47.000;16.084;2022-08-04T03:24:05;4.00;;;3.80;;
1593;SDS011;790;47.000;16.084;2022-08-04T03:30:03;3.60;;;3.47;;
1593;SDS011;790;47.000;16.084;2022-08-04T03:35:51;4.27;;;3.90;;
1593;SDS011;790;47.000;16.084;2022-08-04T03:39:00;4.33;;;4.03;;
1593;SDS011;790;47.000;16.084;2022-08-04T03:45:00;4.70;;;3.97;;
1593;SDS011;790;47.000;16.084;2022-08-04T03:47:57;3.70;;;3.50;;
1593;SDS011;790;47.000;16.084;2022-08-04T03:51:11;4.40;;;4.10;;
1593;SDS011;790;47.000;16.084;2022-08-04T03:54:12;4.53;;;4.33;;
1593;SDS011;790;47.000;16.084;2022-08-04T04:00:10;3.80;;;3.67;;
1593;SDS011;790;47.000;16.084;2022-08-04T04:09:02;5.00;;;4.53;;
1593;SDS011;790;47.000;16.084;2022-08-04T04:11:50;4.55;;;4.22;;
1593;SDS011;790;47.000;16.084;2022-08-04T04:20:52;4.10;;;3.77;;
1593;SDS011;790;47.000;16.084;2022-08-04T04:23:47;4.00;;;3.70;;
1593;SDS011;790;47.000;16.084;2022-08-04T04:29:26;4.37;;;4.17;;
1593;SDS011;790;47.000;16.084;2022-08-04T04:32:07;4.47;;;4.17;;
1593;SDS011;790;47.000;16.084;2022-08-04T04:34:49;4.50;;;4.30;;
1593;SDS011;790;47.000;16.084;2022-08-04T04:37:32;4.43;;;4.13;;
1593;SDS011;790;47.000;16.084;2022-08-04T04:40:18;4.57;;;4.23;;
1593;SDS011;790;47.000;16.084;2022-08-04T04:45:51;4.53;;;4.10;;
1593;SDS011;790;47.000;16.084;2022-08-04T04:48:26;4.37;;;4.10;;
1593;SDS011;790;47.000;16.084;2022-08-04T04:51:07;4.57;;;4.37;;
1593;SDS011;790;47.000;16.084;2022-08-04T04:53:42;4.30;;;4.00;;
1593;SDS011;790;47.000;16.084;2022-08-04T04:56:29;4.57;;;4.27;;
1593;SDS011;790;47.000;16.084;2022-08-04T04:59:08;4.63;;;4.33;;
1593;SDS011;790;47.000;16.084;2022-08-04T05:08:20;4.03;;;3.83;;
1593;SDS011;790;47.000;16.084;2022-08-04T05:11:08;4.95;;;4.50;;
1593;SDS011;790;47.000;16.084;2022-08-04T05:13:50;4.43;;;4.07;;
1593;SDS011;790;47.000;16.084;2022-08-04T05:16:23;4.70;;;4.00;;
1593;SDS011;790;47.000;16.084;2022-08-04T05:18:53;4.47;;;4.18;;
1593;SDS011;790;47.000;16.084;2022-08-04T05:21:33;4.22;;;4.03;;
1593;SDS011;790;47.000;16.084;2022-08-04T05:24:05;4.78;;;4.47;;
1593;SDS011;790;47.000;16.084;2022-08-04T05:26:36;4.47;;;4.28;;
1593;SDS011;790;47.000;16.084;2022-08-04T05:29:08;4.40;;;4.10;;
1593;SDS011;790;47.000;16.084;2022-08-04T05:31:41;4.03;;;3.80;;
1593;SDS011;790;47.000;16.084;2022-08-04T05:34:13;4.70;;;4.43;;
1593;SDS011;790;47.000;16.084;2022-08-04T05:36:46;4.22;;;3.92;;
1593;SDS011;790;47.000;16.084;2022-08-04T05:39:16;4.40;;;4.10;;
1593;SDS011;790;47.000;16.084;2022-08-04T05:41:45;4.18;;;3.97;;
1593;SDS011;790;47.000;16.084;2022-08-04T05:44:14;4.78;;;4.47;;
1593;SDS011;790;47.000;16.084;2022-08-04T05:46:46;4.30;;;4.10;;
1593;SDS011;790;47.000;16.084;2022-08-04T05:49:16;5.18;;;4.82;;
1593;SDS011;790;47.000;16.084;2022-08-04T05:51:44;4.68;;;4.38;;
1593;SDS011;790;47.000;16.084;2022-08-04T05:54:13;4.20;;;3.90;;
1593;SDS011;790;47.000;16.084;2022-08-04T05:56:42;4.10;;;3.90;;
1593;SDS011;790;47.000;16.084;2022-08-04T05:59:09;4.47;;;4.20;;
1593;SDS011;790;47.000;16.084;2022-08-04T06:01:38;4.15;;;3.85;;
1593;SDS011;790;47.000;16.084;2022-08-04T06:04:08;5.05;;;4.38;;
1593;SDS011;790;47.000;16.084;2022-08-04T06:06:36;4.20;;;3.60;;
1593;SDS011;790;47.000;16.084;2022-08-04T06:09:05;4.25;;;4.05;;
1593;SDS011;790;47.000;16.084;2022-08-04T06:11:32;4.50;;;4.13;;
1593;SDS011;790;47.000;16.084;2022-08-04T06:14:02;4.65;;;4.25;;
1593;SDS011;790;47.000;16.084;2022-08-04T06:16:33;4.85;;;4.55;;
1593;SDS011;790;47.000;16.084;2022-08-04T06:19:04;4.22;;;3.97;;
1593;SDS011;790;47.000;16.084;2022-08-04T06:21:36;6.63;;;4.20;;
1593;SDS011;790;47.000;16.084;2022-08-04T06:24:06;4.60;;;4.20;;
1593;SDS011;790;47.000;16.084;2022-08-04T06:26:37;4.35;;;4.03;;
1593;SDS011;790;47.000;16.084;2022-08-04T06:29:05;4.65;;;4.28;;
1593;SDS011;790;47.000;16.084;2022-08-04T06:31:41;4.88;;;4.43;;
1593;SDS011;790;47.000;16.084;2022-08-04T06:34:11;4.72;;;4.25;;
1593;SDS011;790;47.000;16.084;2022-08-04T06:36:42;4.57;;;4.15;;
1593;SDS011;790;47.000;16.084;2022-08-04T06:39:09;4.25;;;4.05;;
1593;SDS011;790;47.000;16.084;2022-08-04T06:41:37;4.25;;;3.95;;
1593;SDS011;790;47.000;16.084;2022-08-04T06:44:06;4.35;;;4.15;;
1593;SDS011;790;47.000;16.084;2022-08-04T06:46:36;4.55;;;4.28;;
1593;SDS011;790;47.000;16.084;2022-08-04T06:49:03;4.18;;;3.90;;
1593;SDS011;790;47.000;16.084;2022-08-04T06:51:31;4.30;;;4.00;;
1593;SDS011;790;47.000;16.084;2022-08-04T06:54:01;4.20;;;3.90;;
1593;SDS011;790;47.000;16.084;2022-08-04T06:56:29;4.60;;;4.20;;
1593;SDS011;790;47.000;16.084;2022-08-04T06:58:58;5.78;;;3.92;;
1593;SDS011;790;47.000;16.084;2022-08-04T07:01:27;13.77;;;4.63;;
1593;SDS011;790;47.000;16.084;2022-08-04T07:03:55;4.22;;;3.80;;
1593;SDS011;790;47.000;16.084;2022-08-04T07:06:22;3.65;;;3.55;;
1593;SDS011;790;47.000;16.084;2022-08-04T07:08:50;3.80;;;3.60;;
1593;SDS011;790;47.000;16.084;2022-08-04T07:11:20;4.05;;;3.63;;
1593;SDS011;790;47.000;16.084;2022-08-04T07:13:47;3.63;;;3.33;;
1593;SDS011;790;47.000;16.084;2022-08-04T07:16:15;4.05;;;3.85;;
1593;SDS011;790;47.000;16.084;2022-08-04T07:18:46;3.85;;;3.65;;
1593;SDS011;790;47.000;16.084;2022-08-04T07:21:19;3.70;;;3.53;;
1593;SDS011;790;47.000;16.084;2022-08-04T07:23:48;3.83;;;3.53;;
1593;SDS011;790;47.000;16.084;2022-08-04T07:26:15;4.00;;;3.65;;
1593;SDS011;790;47.000;16.084;2022-08-04T07:28:45;3.92;;;3.72;;
1593;SDS011;790;47.000;16.084;2022-08-04T07:31:14;3.80;;;3.40;;
1593;SDS011;790;47.000;16.084;2022-08-04T07:33:43;4.40;;;3.65;;
1593;SDS011;790;47.000;16.084;2022-08-04T07:36:12;4.35;;;3.95;;
1593;SDS011;790;47.000;16.084;2022-08-04T07:38:40;3.72;;;3.42;;
1593;SDS011;790;47.000;16.084;2022-08-04T07:41:08;3.13;;;3.03;;
1593;SDS011;790;47.000;16.084;2022-08-04T07:43:37;3.47;;;3.30;;
1593;SDS011;790;47.000;16.084;2022-08-04T07:46:06;3.60;;;3.40;;
1593;SDS011;790;47.000;16.084;2022-08-04T07:48:35;5.72;;;3.70;;
1593;SDS011;790;47.000;16.084;2022-08-04T07:51:02;4.15;;;3.20;;
1593;SDS011;790;47.000;16.084;2022-08-04T07:53:30;3.10;;;3.00;;
1593;SDS011;790;47.000;16.084;2022-08-04T07:55:59;3.03;;;2.78;;
1593;SDS011;790;47.000;16.084;2022-08-04T07:58:27;3.40;;;3.20;;
1593;SDS011;790;47.000;16.084;2022-08-04T08:00:55;3.08;;;2.97;;
1593;SDS011;790;47.000;16.084;2022-08-04T08:03:23;3.15;;;2.95;;
1593;SDS011;790;47.000;16.084;2022-08-04T08:05:51;3.30;;;3.10;;
1593;SDS011;790;47.000;16.084;2022-08-04T08:08:19;3.60;;;3.30;;
1593;SDS011;790;47.000;16.084;2022-08-04T08:10:46;3.17;;;2.90;;
1593;SDS011;790;47.000;16.084;2022-08-04T08:13:14;3.35;;;3.00;;
1593;SDS011;790;47.000;16.084;2022-08-04T08:15:43;2.88;;;2.67;;
1593;SDS011;790;47.000;16.084;2022-08-04T08:18:11;2.95;;;2.85;;
1593;SDS011;790;47.000;16.084;2022-08-04T08:20:42;3.13;;;2.92;;
1593;SDS011;790;47.000;16.084;2022-08-04T08:23:11;2.95;;;2.75;;
1593;SDS011;790;47.000;16.084;2022-08-04T08:25:39;3.10;;;2.88;;
1593;SDS011;790;47.000;16.084;2022-08-04T08:28:06;2.75;;;2.55;;
1593;SDS011;790;47.000;16.084;2022-08-04T08:30:33;2.90;;;2.80;;
1593;SDS011;790;47.000;16.084;2022-08-04T08:33:03;2.53;;;2.42;;
1593;SDS011;790;47.000;16.084;2022-08-04T08:35:33;2.63;;;2.53;;
1593;SDS011;790;47.000;16.084;2022-08-04T08:38:12;2.08;;;1.98;;
1593;SDS011;790;47.000;16.084;2022-08-04T08:40:45;2.63;;;2.45;;
1593;SDS011;790;47.000;16.084;2022-08-04T08:43:23;1.83;;;1.83;;
1593;SDS011;790;47.000;16.084;2022-08-04T08:46:16;1.92;;;1.92;;
1593;SDS011;790;47.000;16.084;2022-08-04T08:52:11;4.28;;;2.30;;
1593;SDS011;790;47.000;16.084;2022-08-04T08:55:05;2.15;;;1.95;;
1593;SDS011;790;47.000;16.084;2022-08-04T08:57:45;3.90;;;2.22;;
1593;SDS011;790;47.000;16.084;2022-08-04T09:00:25;5.03;;;2.42;;
1593;SDS011;790;47.000;16.084;2022-08-04T09:03:11;2.92;;;2.10;;
1593;SDS011;790;47.000;16.084;2022-08-04T09:06:08;2.50;;;2.40;;
1593;SDS011;790;47.000;16.084;2022-08-04T09:09:03;2.22;;;2.13;;
1593;SDS011;790;47.000;16.084;2022-08-04T09:11:41;2.10;;;2.00;;
1593;SDS011;790;47.000;16.084;2022-08-04T09:14:16;2.35;;;2.25;;
1593;SDS011;790;47.000;16.084;2022-08-04T09:16:50;2.45;;;2.17;;
1593;SDS011;790;47.000;16.084;2022-08-04T09:19:22;2.25;;;2.05;;
1593;SDS011;790;47.000;16.084;2022-08-04T09:21:56;2.50;;;2.40;;
1593;SDS011;790;47.000;16.084;2022-08-04T09:24:31;4.53;;;2.30;;
1593;SDS011;790;47.000;16.084;2022-08-04T09:27:08;4.25;;;1.90;;
1593;SDS011;790;47.000;16.084;2022-08-04T09:29:42;2.42;;;2.33;;
1593;SDS011;790;47.000;16.084;2022-08-04T09:32:20;2.72;;;2.40;;
1593;SDS011;790;47.000;16.084;2022-08-04T09:35:02;2.38;;;1.95;;
1593;SDS011;790;47.000;16.084;2022-08-04T09:37:39;2.30;;;2.05;;
1593;SDS011;790;47.000;16.084;2022-08-04T09:40:17;2.30;;;2.20;;
1593;SDS011;790;47.000;16.084;2022-08-04T09:42:49;2.13;;;2.03;;
1593;SDS011;790;47.000;16.084;2022-08-04T09:45:28;2.20;;;2.15;;
1593;SDS011;790;47.000;16.084;2022-08-04T09:48:07;2.30;;;2.20;;
1593;SDS011;790;47.000;16.084;2022-08-04T09:50:40;3.08;;;2.17;;
1593;SDS011;790;47.000;16.084;2022-08-04T09:53:16;2.40;;;2.28;;
1593;SDS011;790;47.000;16.084;2022-08-04T09:55:59;2.22;;;2.13;;
1593;SDS011;790;47.000;16.084;2022-08-04T09:58:39;2.28;;;2.15;;
1593;SDS011;790;47.000;16.084;2022-08-04T10:01:16;4.68;;;2.33;;
1593;SDS011;790;47.000;16.084;2022-08-04T10:03:47;2.90;;;2.15;;
1593;SDS011;790;47.000;16.084;2022-08-04T10:06:27;2.50;;;2.00;;
1593;SDS011;790;47.000;16.084;2022-08-04T10:09:07;2.28;;;2.17;;
1593;SDS011;790;47.000;16.084;2022-08-04T10:11:51;3.92;;;2.45;;
1593;SDS011;790;47.000;16.084;2022-08-04T10:14:36;2.45;;;2.25;;
1593;SDS011;790;47.000;16.084;2022-08-04T10:20:18;2.25;;;2.15;;
1593;SDS011;790;47.000;16.084;2022-08-04T10:22:53;2.40;;;2.20;;
1593;SDS011;790;47.000;16.084;2022-08-04T10:25:29;2.42;;;2.33;;
1593;SDS011;790;47.000;16.084;2022-08-04T10:28:10;2.05;;;2.05;;
1593;SDS011;790;47.000;16.084;2022-08-04T10:30:43;3.78;;;2.25;;
1593;SDS011;790;47.000;16.084;2022-08-04T10:33:17;3.00;;;2.20;;
1593;SDS011;790;47.000;16.084;2022-08-04T10:35:50;2.40;;;2.30;;
1593;SDS011;790;47.000;16.084;2022-08-04T10:38:27;2.58;;;2.30;;
1593;SDS011;790;47.000;16.084;2022-08-04T10:40:57;2.50;;;1.98;;
1593;SDS011;790;47.000;16.084;2022-08-04T10:43:36;2.50;;;2.38;;
1593;SDS011;790;47.000;16.084;2022-08-04T10:46:09;2.03;;;1.92;;
1593;SDS011;790;47.000;16.084;2022-08-04T10:48:41;2.72;;;2.05;;
1593;SDS011;790;47.000;16.084;2022-08-04T10:51:20;2.47;;;2.10;;
1593;SDS011;790;47.000;16.084;2022-08-04T10:53:55;2.13;;;2.03;;
1593;SDS011;790;47.000;16.084;2022-08-04T10:56:28;2.35;;;1.98;;
1593;SDS011;790;47.000;16.084;2022-08-04T10:59:05;2.50;;;2.40;;
1593;SDS011;790;47.000;16.084;2022-08-04T11:01:36;2.30;;;2.20;;
1593;SDS011;790;47.000;16.084;2022-08-04T11:04:07;2.45;;;2.35;;
1593;SDS011;790;47.000;16.084;2022-08-04T11:06:40;2.63;;;1.95;;
1593;SDS011;790;47.000;16.084;2022-08-04T11:09:10;2.20;;;2.10;;
1593;SDS011;790;47.000;16.084;2022-08-04T11:11:40;2.53;;;2.40;;
1593;SDS011;790;47.000;16.084;2022-08-04T11:14:13;2.33;;;2.22;;
1593;SDS011;790;47.000;16.084;2022-08-04T11:16:43;2.90;;;2.10;;
1593;SDS011;790;47.000;16.084;2022-08-04T11:19:18;2.80;;;1.98;;
1593;SDS011;790;47.000;16.084;2022-08-04T11:21:55;1.88;;;1.80;;
1593;SDS011;790;47.000;16.084;2022-08-04T11:24:25;1.90;;;1.90;;
1593;SDS011;790;47.000;16.084;2022-08-04T11:27:03;2.13;;;2.03;;
1593;SDS011;790;47.000;16.084;2022-08-04T11:29:39;2.10;;;2.00;;
1593;SDS011;790;47.000;16.084;2022-08-04T11:32:23;2.63;;;2.42;;
1593;SDS011;790;47.000;16.084;2022-08-04T11:35:01;2.10;;;2.00;;
1593;SDS011;790;47.000;16.084;2022-08-04T11:37:35;2.35;;;2.22;;
1593;SDS011;790;47.000;16.084;2022-08-04T11:40:12;2.72;;;1.92;;
1593;SDS011;790;47.000;16.084;2022-08-04T11:42:49;2.58;;;2.03;;
1593;SDS011;790;47.000;16.084;2022-08-04T11:45:23;1.90;;;1.80;;
1593;SDS011;790;47.000;16.084;2022-08-04T11:47:56;2.15;;;1.60;;
1593;SDS011;790;47.000;16.084;2022-08-04T11:50:28;2.25;;;2.08;;
1593;SDS011;790;47.000;16.084;2022-08-04T11:52:58;1.75;;;1.65;;
1593;SDS011;790;47.000;16.084;2022-08-04T11:55:27;2.20;;;2.00;;
1593;SDS011;790;47.000;16.084;2022-08-04T11:57:55;2.90;;;1.83;;
1593;SDS011;790;47.000;16.084;2022-08-04T12:00:24;1.95;;;1.85;;
1593;SDS011;790;47.000;16.084;2022-08-04T12:03:10;2.03;;;1.92;;
1593;SDS011;790;47.000;16.084;2022-08-04T12:05:51;1.95;;;1.70;;
1593;SDS011;790;47.000;16.084;2022-08-04T12:08:37;1.95;;;1.85;;
1593;SDS011;790;47.000;16.084;2022-08-04T12:11:15;1.58;;;1.58;;
1593;SDS011;790;47.000;16.084;2022-08-04T12:13:58;2.00;;;1.90;;
1593;SDS011;790;47.000;16.084;2022-08-04T12:16:37;1.70;;;1.70;;
1593;SDS011;790;47.000;16.084;2022-08-04T12:19:12;2.00;;;1.90;;
1593;SDS011;790;47.000;16.084;2022-08-04T12:21:48;2.25;;;1.70;;
1593;SDS011;790;47.000;16.084;2022-08-04T12:24:19;2.30;;;2.20;;
1593;SDS011;790;47.000;16.084;2022-08-04T12:26:49;2.28;;;2.17;;
1593;SDS011;790;47.000;16.084;2022-08-04T12:29:17;2.17;;;1.92;;
1593;SDS011;790;47.000;16.084;2022-08-04T12:31:50;1.90;;;1.80;;
1593;SDS011;790;47.000;16.084;2022-08-04T12:34:24;1.90;;;1.75;;
1593;SDS011;790;47.000;16.084;2022-08-04T12:36:58;1.80;;;1.80;;
1593;SDS011;790;47.000;16.084;2022-08-04T12:39:30;2.33;;;2.17;;
1593;SDS011;790;47.000;16.084;2022-08-04T12:42:00;1.88;;;1.85;;
1593;SDS011;790;47.000;16.084;2022-08-04T12:44:32;1.95;;;1.85;;
1593;SDS011;790;47.000;16.084;2022-08-04T12:47:02;2.00;;;1.90;;
1593;SDS011;790;47.000;16.084;2022-08-04T12:49:31;3.45;;;1.88;;
1593;SDS011;790;47.000;16.084;2022-08-04T12:52:03;1.90;;;1.80;;
1593;SDS011;790;47.000;16.084;2022-08-04T12:54:32;2.17;;;1.98;;
1593;SDS011;790;47.000;16.084;2022-08-04T12:57:01;4.10;;;1.85;;
1593;SDS011;790;47.000;16.084;2022-08-04T12:59:36;2.60;;;2.50;;
1593;SDS011;790;47.000;16.084;2022-08-04T13:02:06;2.08;;;1.90;;
1593;SDS011;790;47.000;16.084;2022-08-04T13:04:40;3.35;;;1.90;;
1593;SDS011;790;47.000;16.084;2022-08-04T13:07:11;2.45;;;1.90;;
1593;SDS011;790;47.000;16.084;2022-08-04T13:09:40;1.95;;;1.85;;
1593;SDS011;790;47.000;16.084;2022-08-04T13:12:10;2.10;;;2.00;;
1593;SDS011;790;47.000;16.084;2022-08-04T13:14:39;2.47;;;1.92;;
1593;SDS011;790;47.000;16.084;2022-08-04T13:17:10;2.13;;;1.80;;
1593;SDS011;790;47.000;16.084;2022-08-04T13:19:38;2.10;;;1.83;;
1593;SDS011;790;47.000;16.084;2022-08-04T13:22:11;2.00;;;1.90;;
1593;SDS011;790;47.000;16.084;2022-08-04T13:24:40;2.55;;;2.00;;
1593;SDS011;790;47.000;16.084;2022-08-04T13:27:09;2.50;;;1.95;;
1593;SDS011;790;47.000;16.084;2022-08-04T13:29:39;2.25;;;2.05;;
1593;SDS011;790;47.000;16.084;2022-08-04T13:32:13;3.85;;;1.90;;
1593;SDS011;790;47.000;16.084;2022-08-04T13:34:44;2.25;;;1.73;;
1593;SDS011;790;47.000;16.084;2022-08-04T13:37:14;2.40;;;2.20;;
1593;SDS011;790;47.000;16.084;2022-08-04T13:39:44;2.50;;;2.30;;
1593;SDS011;790;47.000;16.084;2022-08-04T13:42:13;2.25;;;2.08;;
1593;SDS011;790;47.000;16.084;2022-08-04T13:44:44;1.92;;;1.83;;
1593;SDS011;790;47.000;16.084;2022-08-04T13:47:20;2.20;;;2.00;;
1593;SDS011;790;47.000;16.084;2022-08-04T13:52:52;3.90;;;2.20;;
1593;SDS011;790;47.000;16.084;2022-08-04T13:55:21;2.13;;;1.88;;
1593;SDS011;790;47.000;16.084;2022-08-04T13:57:53;4.68;;;1.90;;
1593;SDS011;790;47.000;16.084;2022-08-04T14:03:17;1.92;;;1.83;;
1593;SDS011;790;47.000;16.084;2022-08-04T14:08:34;2.15;;;2.05;;
1593;SDS011;790;47.000;16.084;2022-08-04T14:11:07;2.30;;;2.20;;
1593;SDS011;790;47.000;16.084;2022-08-04T14:13:35;3.00;;;2.17;;
1593;SDS011;790;47.000;16.084;2022-08-04T14:16:02;2.70;;;2.50;;
1593;SDS011;790;47.000;16.084;2022-08-04T14:18:41;2.20;;;2.10;;
1593;SDS011;790;47.000;16.084;2022-08-04T14:21:09;7.13;;;4.43;;
1593;SDS011;790;47.000;16.084;2022-08-04T14:23:39;2.42;;;2.33;;
1593;SDS011;790;47.000;16.084;2022-08-04T14:26:12;2.38;;;2.28;;
1593;SDS011;790;47.000;16.084;2022-08-04T14:28:40;4.35;;;2.10;;
1593;SDS011;790;47.000;16.084;2022-08-04T14:31:08;2.03;;;1.92;;
1593;SDS011;790;47.000;16.084;2022-08-04T14:33:36;2.50;;;2.22;;
1593;SDS011;790;47.000;16.084;2022-08-04T14:36:07;2.55;;;2.45;;
1593;SDS011;790;47.000;16.084;2022-08-04T14:38:42;2.50;;;2.30;;
1593;SDS011;790;47.000;16.084;2022-08-04T14:41:12;2.35;;;2.00;;
1593;SDS011;790;47.000;16.084;2022-08-04T14:43:41;2.22;;;2.13;;
1593;SDS011;790;47.000;16.084;2022-08-04T14:46:10;2.30;;;2.20;;
1593;SDS011;790;47.000;16.084;2022-08-04T14:48:37;4.22;;;2.28;;
1593;SDS011;790;47.000;16.084;2022-08-04T14:51:12;2.22;;;2.13;;
1593;SDS011;790;47.000;16.084;2022-08-04T14:53:40;2.30;;;2.20;;
1593;SDS011;790;47.000;16.084;2022-08-04T14:56:13;1.90;;;1.90;;
1593;SDS011;790;47.000;16.084;2022-08-04T14:58:40;2.28;;;2.17;;
1593;SDS011;790;47.000;16.084;2022-08-04T15:01:09;2.20;;;2.10;;
1593;SDS011;790;47.000;16.084;2022-08-04T15:03:39;2.45;;;1.95;;
1593;SDS011;790;47.000;16.084;2022-08-04T15:06:08;3.45;;;1.95;;
1593;SDS011;790;47.000;16.084;2022-08-04T15:08:37;3.40;;;2.08;;
1593;SDS011;790;47.000;16.084;2022-08-04T15:11:04;2.85;;;1.98;;
1593;SDS011;790;47.000;16.084;2022-08-04T15:13:31;5.07;;;2.15;;
1593;SDS011;790;47.000;16.084;2022-08-04T15:15:59;2.03;;;1.83;;
1593;SDS011;790;47.000;16.084;2022-08-04T15:18:26;2.20;;;2.10;;
1593;SDS011;790;47.000;16.084;2022-08-04T15:20:55;2.88;;;1.90;;
1593;SDS011;790;47.000;16.084;2022-08-04T15:23:23;2.22;;;2.10;;
1593;SDS011;790;47.000;16.084;2022-08-04T15:25:52;2.38;;;2.10;;
1593;SDS011;790;47.000;16.084;2022-08-04T15:28:22;2.90;;;2.30;;
1593;SDS011;790;47.000;16.084;2022-08-04T15:30:51;2.00;;;2.00;;
1593;SDS011;790;47.000;16.084;2022-08-04T15:33:20;2.90;;;2.30;;
1593;SDS011;790;47.000;16.084;2022-08-04T15:35:49;2.53;;;2.33;;
1593;SDS011;790;47.000;16.084;2022-08-04T15:38:22;3.50;;;2.00;;
1593;SDS011;790;47.000;16.084;2022-08-04T15:40:58;3.80;;;2.45;;
1593;SDS011;790;47.000;16.084;2022-08-04T15:43:38;2.28;;;2.17;;
1593;SDS011;790;47.000;16.084;2022-08-04T15:46:16;2.75;;;2.45;;
1593;SDS011;790;47.000;16.084;2022-08-04T15:49:16;2.30;;;2.20;;
1593;SDS011;790;47.000;16.084;2022-08-04T15:51:45;4.72;;;2.70;;
1593;SDS011;790;47.000;16.084;2022-08-04T15:54:21;2.20;;;2.10;;
1593;SDS011;790;47.000;16.084;2022-08-04T15:56:50;2.30;;;2.13;;
1593;SDS011;790;47.000;16.084;2022-08-04T16:02:34;2.70;;;2.08;;
1593;SDS011;790;47.000;16.084;2022-08-04T16:07:58;3.10;;;2.25;;
1593;SDS011;790;47.000;16.084;2022-08-04T16:10:35;2.90;;;2.70;;
1593;SDS011;790;47.000;16.084;2022-08-04T16:13:05;2.10;;;2.00;;
1593;SDS011;790;47.000;16.084;2022-08-04T16:15:43;2.20;;;2.20;;
1593;SDS011;790;47.000;16.084;2022-08-04T16:18:17;2.53;;;2.28;;
1593;SDS011;790;47.000;16.084;2022-08-04T16:20:47;2.60;;;2.40;;
1593;SDS011;790;47.000;16.084;2022-08-04T16:29:34;2.33;;;2.17;;
1593;SDS011;790;47.000;16.084;2022-08-04T16:32:10;3.33;;;2.53;;
1593;SDS011;790;47.000;16.084;2022-08-04T16:34:48;2.80;;;2.10;;
1593;SDS011;790;47.000;16.084;2022-08-04T16:37:20;2.58;;;2.30;;
1593;SDS011;790;47.000;16.084;2022-08-04T16:39:49;3.05;;;2.55;;
1593;SDS011;790;47.000;16.084;2022-08-04T16:42:52;2.70;;;2.42;;
1593;SDS011;790;47.000;16.084;2022-08-04T16:45:21;2.60;;;2.50;;
1593;SDS011;790;47.000;16.084;2022-08-04T16:48:00;2.38;;;2.28;;
1593;SDS011;790;47.000;16.084;2022-08-04T16:50:32;4.95;;;2.50;;
1593;SDS011;790;47.000;16.084;2022-08-04T16:53:10;2.60;;;2.40;;
1593;SDS011;790;47.000;16.084;2022-08-04T16:55:37;2.47;;;2.28;;
1593;SDS011;790;47.000;16.084;2022-08-04T16:58:11;2.35;;;2.25;;
1593;SDS011;790;47.000;16.084;2022-08-04T17:00:40;2.88;;;2.60;;
1593;SDS011;790;47.000;16.084;2022-08-04T17:03:08;2.45;;;2.25;;
1593;SDS011;790;47.000;16.084;2022-08-04T17:05:37;2.63;;;2.47;;
1593;SDS011;790;47.000;16.084;2022-08-04T17:08:07;2.63;;;2.35;;
1593;SDS011;790;47.000;16.084;2022-08-04T17:10:36;2.58;;;2.20;;
1593;SDS011;790;47.000;16.084;2022-08-04T17:13:23;2.35;;;2.25;;
1593;SDS011;790;47.000;16.084;2022-08-04T17:15:55;2.90;;;2.70;;